New Offenburg, Missouri
Current Conditions -  °F | °C
As of 3:55 PM on Thursday 27 Nov 2014 (Local Time) from KFAM Reporting Station
Clear Clear  
Wind Chill: 30°   Ceiling: Unl
Heat Index: 36°   Visibility: 10mi
Dew Point: 21°   Wind: 7mph
Humidity: 56%   Direction: 290°WNW
Pressure: 30.44"   Gusts: NA
Location:  37.91°N, 90.2°W
Report Text: KFAM 272155Z AUTO 29006KT 10SM CLR 02/M06 A3044 RMK AO1
Loading
Personal Weather Stations






























Interactive Weather Map New forecast layout! Learn more

10-Day Weather Forecast

Advertisements
Track Severe Weather on mobile